createdAt,value
2023-04-15T00:01:50.321Z,9.49
2023-04-15T00:04:37.592Z,9.46
2023-04-15T00:07:24.243Z,9.45
2023-04-15T00:10:11.050Z,9.43
2023-04-15T00:12:57.670Z,9.39
2023-04-15T00:15:44.082Z,9.36
2023-04-15T00:18:31.793Z,9.31
2023-04-15T00:21:18.554Z,9.26
2023-04-15T00:24:05.372Z,9.20
2023-04-15T00:26:51.674Z,9.12
2023-04-15T00:29:38.219Z,9.12
2023-04-15T00:32:24.689Z,9.09
2023-04-15T00:35:11.725Z,9.06
2023-04-15T00:37:59.821Z,9.04
2023-04-15T00:40:46.390Z,9.01
2023-04-15T00:43:32.835Z,8.96
2023-04-15T00:46:21.456Z,8.95
2023-04-15T00:49:07.905Z,8.95
2023-04-15T00:51:54.624Z,8.94
2023-04-15T00:54:41.440Z,8.93
2023-04-15T00:57:28.893Z,8.91
2023-04-15T01:00:16.633Z,8.89
2023-04-15T01:03:03.442Z,8.87
2023-04-15T01:05:50.436Z,8.87
2023-04-15T01:08:36.928Z,8.88
2023-04-15T01:11:24.195Z,8.89
2023-04-15T01:14:11.331Z,8.89
2023-04-15T01:16:57.876Z,8.91
2023-04-15T01:19:44.202Z,8.95
2023-04-15T01:22:33.407Z,8.97
2023-04-15T01:25:20.650Z,8.99
2023-04-15T01:28:07.397Z,9.01
2023-04-15T01:31:27.378Z,9.05
2023-04-15T01:34:14.385Z,9.09
2023-04-15T01:37:01.306Z,9.12
2023-04-15T01:39:48.187Z,9.13
2023-04-15T01:42:37.641Z,9.15
2023-04-15T01:45:24.230Z,9.16
2023-04-15T01:48:10.549Z,9.16
2023-04-15T01:50:58.378Z,9.15
2023-04-15T01:53:44.757Z,9.15
2023-04-15T01:56:31.108Z,9.14
2023-04-15T01:59:17.925Z,9.14
2023-04-15T02:02:05.588Z,9.10
2023-04-15T02:04:52.138Z,9.07
2023-04-15T02:07:38.880Z,9.03
2023-04-15T02:10:25.738Z,9.05
2023-04-15T02:13:12.224Z,9.07
2023-04-15T02:15:59.820Z,9.08
2023-04-15T02:18:47.125Z,9.10
2023-04-15T02:21:33.414Z,9.13
2023-04-15T02:24:19.830Z,9.15
2023-04-15T02:27:06.337Z,9.18
2023-04-15T02:29:53.084Z,9.23
2023-04-15T02:32:40.861Z,9.30
2023-04-15T02:35:27.825Z,9.37
2023-04-15T02:38:16.805Z,9.42
2023-04-15T02:41:03.656Z,9.47
2023-04-15T02:43:50.328Z,9.51
2023-04-15T02:46:37.298Z,9.55
2023-04-15T02:49:25.264Z,9.60
2023-04-15T02:52:11.675Z,9.64
2023-04-15T02:55:00.824Z,9.68
2023-04-15T02:57:47.239Z,9.67
2023-04-15T03:00:33.652Z,9.72
2023-04-15T03:03:20.474Z,9.73
2023-04-15T03:06:07.083Z,9.77
2023-04-15T03:08:54.061Z,9.75
2023-04-15T03:11:42.248Z,9.78
2023-04-15T03:14:29.628Z,9.78
2023-04-15T03:17:16.556Z,9.79
2023-04-15T03:20:05.810Z,9.82
2023-04-15T03:22:52.811Z,9.85
2023-04-15T03:25:40.631Z,9.84
2023-04-15T03:28:27.388Z,9.85
2023-04-15T03:31:15.563Z,9.86
2023-04-15T03:34:02.508Z,9.87
2023-04-15T03:36:49.213Z,9.90
2023-04-15T03:39:35.815Z,9.90
2023-04-15T03:42:22.279Z,9.89
2023-04-15T03:45:10.030Z,9.89
2023-04-15T03:48:03.608Z,9.90
2023-04-15T03:50:58.209Z,9.93
2023-04-15T03:53:44.822Z,9.95
2023-04-15T03:56:31.419Z,9.96
2023-04-15T03:59:17.923Z,9.98
2023-04-15T04:02:04.620Z,9.94
2023-04-15T04:04:51.966Z,9.96
2023-04-15T04:07:38.869Z,9.98
2023-04-15T04:10:25.775Z,10.01
2023-04-15T04:13:12.275Z,10.03
2023-04-15T04:15:58.870Z,10.04
2023-04-15T04:18:45.112Z,10.03
2023-04-15T04:21:34.204Z,10.03
2023-04-15T04:24:20.738Z,10.04
2023-04-15T04:27:07.444Z,10.07
2023-04-15T04:29:54.095Z,10.08
2023-04-15T04:32:40.914Z,10.09
2023-04-15T04:35:27.512Z,10.09
2023-04-15T04:38:13.880Z,10.09
2023-04-15T04:41:00.741Z,10.10
2023-04-15T04:43:47.252Z,10.13
2023-04-15T04:46:33.996Z,10.15
2023-04-15T04:49:20.542Z,10.16
2023-04-15T04:52:07.268Z,10.17
2023-04-15T04:54:53.632Z,10.17
2023-04-15T04:57:40.424Z,10.19
2023-04-15T05:00:26.896Z,10.24
2023-04-15T05:03:13.404Z,10.27
2023-04-15T05:06:00.788Z,10.28
2023-04-15T05:08:47.141Z,10.29
2023-04-15T05:11:33.762Z,10.29
2023-04-15T05:14:21.130Z,10.30
2023-04-15T05:17:09.091Z,10.32
2023-04-15T05:19:55.403Z,10.35
2023-04-15T05:22:42.248Z,10.37
2023-04-15T05:25:29.274Z,10.37
2023-04-15T05:28:15.807Z,10.35
2023-04-15T05:31:02.756Z,10.34
2023-04-15T05:33:49.347Z,10.34
2023-04-15T05:36:36.853Z,10.36
2023-04-15T05:39:23.380Z,10.37
2023-04-15T05:42:09.803Z,10.38
2023-04-15T05:44:56.399Z,10.39
2023-04-15T05:47:43.210Z,10.38
2023-04-15T05:50:29.620Z,10.37
2023-04-15T05:53:15.927Z,10.39
2023-04-15T05:56:02.530Z,10.39
2023-04-15T05:58:49.309Z,10.33
2023-04-15T06:01:36.207Z,10.37
2023-04-15T06:04:23.016Z,10.37
2023-04-15T06:07:10.354Z,10.37
2023-04-15T06:09:57.607Z,10.35
2023-04-15T06:12:44.288Z,10.33
2023-04-15T06:15:31.747Z,10.31
2023-04-15T06:18:18.755Z,10.29
2023-04-15T06:21:05.992Z,10.26
2023-04-15T06:23:53.294Z,10.24
2023-04-15T06:26:40.025Z,10.17
2023-04-15T06:29:26.733Z,10.10
2023-04-15T06:32:13.453Z,10.06
2023-04-15T06:35:00.455Z,10.00
2023-04-15T06:37:46.967Z,9.94
2023-04-15T06:40:33.632Z,9.93
2023-04-15T06:43:20.917Z,9.89
2023-04-15T06:46:07.725Z,9.88
2023-04-15T06:48:54.049Z,9.84
2023-04-15T06:51:42.750Z,9.80
2023-04-15T06:54:29.520Z,9.76
2023-04-15T06:57:16.184Z,9.76
2023-04-15T07:00:05.804Z,9.72
2023-04-15T07:02:52.935Z,9.68
2023-04-15T07:05:39.677Z,9.75
2023-04-15T07:08:26.538Z,9.79
2023-04-15T07:11:13.151Z,9.81
2023-04-15T07:13:59.717Z,9.82
2023-04-15T07:16:46.248Z,9.82
2023-04-15T07:19:33.078Z,9.81
2023-04-15T07:22:19.743Z,9.83
2023-04-15T07:25:07.571Z,9.84
2023-04-15T07:27:54.265Z,9.84
2023-04-15T07:30:40.681Z,9.84
2023-04-15T07:33:27.337Z,9.85
2023-04-15T07:36:14.142Z,9.86
2023-04-15T07:39:03.536Z,9.87
2023-04-15T07:41:50.438Z,9.90
2023-04-15T07:44:37.534Z,9.93
2023-04-15T07:47:24.195Z,9.99
2023-04-15T07:50:11.603Z,10.00
2023-04-15T07:52:58.518Z,10.00
2023-04-15T07:55:45.368Z,9.99
2023-04-15T07:58:31.693Z,10.00
2023-04-15T08:01:18.538Z,10.03
2023-04-15T08:04:05.561Z,10.08
2023-04-15T08:06:52.699Z,10.10
2023-04-15T08:09:39.541Z,10.10
2023-04-15T08:12:26.427Z,10.10
2023-04-15T08:15:13.580Z,10.14
2023-04-15T08:18:03.050Z,10.18
2023-04-15T08:20:49.640Z,10.23
2023-04-15T08:23:36.293Z,10.22
2023-04-15T08:26:22.975Z,10.30
2023-04-15T08:29:10.061Z,10.35
2023-04-15T08:31:56.985Z,10.43
2023-04-15T08:34:44.877Z,10.47
2023-04-15T08:37:31.278Z,10.55
2023-04-15T08:40:18.158Z,10.62
2023-04-15T08:43:06.112Z,10.73
2023-04-15T08:45:53.071Z,10.82
2023-04-15T08:48:40.792Z,10.84
2023-04-15T08:51:29.859Z,10.80
2023-04-15T08:54:16.492Z,10.78
2023-04-15T08:57:04.020Z,10.77
2023-04-15T08:59:51.106Z,10.77
2023-04-15T09:02:37.779Z,10.78
2023-04-15T09:05:24.507Z,10.78
2023-04-15T09:08:11.305Z,10.79
2023-04-15T09:10:58.054Z,10.84
2023-04-15T09:13:44.572Z,10.85
2023-04-15T09:16:31.903Z,10.88
2023-04-15T09:19:23.206Z,10.90
2023-04-15T09:22:09.906Z,10.91
2023-04-15T09:24:56.341Z,10.98
2023-04-15T09:27:54.103Z,11.02
2023-04-15T09:30:46.644Z,11.00
2023-04-15T09:33:33.399Z,10.96
2023-04-15T09:36:19.925Z,11.05
2023-04-15T09:39:07.196Z,11.08
2023-04-15T09:42:07.668Z,11.12
2023-04-15T09:44:54.175Z,11.28
2023-04-15T09:47:41.383Z,11.44
2023-04-15T09:50:32.189Z,11.56
2023-04-15T09:53:20.625Z,11.67
2023-04-15T09:56:11.108Z,11.74
2023-04-15T09:58:59.176Z,11.81
2023-04-15T10:01:46.534Z,11.85
2023-04-15T10:04:36.662Z,11.90
2023-04-15T10:07:23.966Z,11.92
2023-04-15T10:10:11.532Z,12.04
2023-04-15T10:12:58.007Z,12.12
2023-04-15T10:15:47.517Z,12.36
2023-04-15T10:18:38.133Z,12.59
2023-04-15T10:21:24.881Z,12.71
2023-04-15T10:24:12.371Z,12.75
2023-04-15T10:27:00.635Z,12.72
2023-04-15T10:29:49.509Z,12.69
2023-04-15T10:32:37.257Z,12.59
2023-04-15T10:35:24.591Z,12.46
2023-04-15T10:38:33.793Z,12.26
2023-04-15T10:41:26.934Z,12.17
2023-04-15T10:44:13.723Z,12.10
2023-04-15T10:47:00.660Z,12.04
2023-04-15T10:49:50.506Z,12.06
2023-04-15T10:52:44.126Z,11.97
2023-04-15T10:55:34.735Z,11.85
2023-04-15T10:58:26.224Z,11.87
2023-04-15T11:01:13.550Z,12.01
2023-04-15T11:04:00.030Z,12.18
2023-04-15T11:06:46.611Z,12.35
2023-04-15T11:09:34.601Z,12.62
2023-04-15T11:12:21.837Z,12.93
2023-04-15T11:15:33.614Z,13.06
2023-04-15T11:18:22.994Z,13.01
2023-04-15T11:21:09.774Z,12.98
2023-04-15T11:23:56.758Z,12.85
2023-04-15T11:26:43.356Z,12.73
2023-04-15T11:29:33.298Z,12.56
2023-04-15T11:32:21.700Z,12.46
2023-04-15T11:35:08.174Z,12.39
2023-04-15T11:37:55.863Z,12.33
2023-04-15T11:40:46.224Z,12.23
2023-04-15T11:43:35.423Z,12.17
2023-04-15T11:46:23.091Z,12.07
2023-04-15T11:49:09.677Z,11.97
2023-04-15T11:51:56.365Z,11.98
2023-04-15T11:54:42.976Z,11.93
2023-04-15T11:57:32.524Z,11.90
2023-04-15T12:00:20.997Z,11.98
2023-04-15T12:03:18.923Z,11.96
2023-04-15T12:06:20.690Z,11.94
2023-04-15T12:09:06.982Z,11.92
2023-04-15T12:11:58.289Z,11.95
2023-04-15T12:14:44.932Z,11.97
2023-04-15T12:17:31.754Z,12.01
2023-04-15T12:20:45.368Z,12.08
2023-04-15T12:23:31.838Z,12.10
2023-04-15T12:26:29.661Z,12.14
2023-04-15T12:29:17.464Z,12.14
2023-04-15T12:32:06.005Z,12.03
2023-04-15T12:34:56.847Z,12.00
2023-04-15T12:37:43.176Z,12.00
2023-04-15T12:40:29.911Z,12.03
2023-04-15T12:43:16.710Z,12.09
2023-04-15T12:46:02.950Z,12.12
2023-04-15T12:48:52.039Z,12.10
2023-04-15T12:51:38.096Z,12.04
2023-04-15T12:54:24.390Z,11.95
2023-04-15T12:57:11.199Z,11.88
2023-04-15T12:59:57.809Z,11.82
2023-04-15T13:02:44.928Z,11.91
2023-04-15T13:05:31.780Z,11.92
2023-04-15T13:08:19.438Z,11.91
2023-04-15T13:11:06.057Z,11.90
2023-04-15T13:13:52.971Z,11.89
2023-04-15T13:16:39.864Z,12.06
2023-04-15T13:19:26.971Z,12.11
2023-04-15T13:22:15.147Z,12.12
2023-04-15T13:25:01.339Z,12.12
2023-04-15T13:27:48.218Z,12.25
2023-04-15T13:30:37.593Z,12.32
2023-04-15T13:33:23.927Z,12.46
2023-04-15T13:36:10.437Z,12.52
2023-04-15T13:38:57.813Z,12.51
2023-04-15T13:41:44.289Z,12.73
2023-04-15T13:44:30.857Z,12.66
2023-04-15T13:47:19.782Z,12.69
2023-04-15T13:50:07.075Z,12.67
2023-04-15T13:52:53.422Z,12.42
2023-04-15T13:55:43.234Z,12.24
2023-04-15T13:58:29.466Z,12.08
2023-04-15T14:01:16.435Z,11.94
2023-04-15T14:04:03.168Z,11.81
2023-04-15T14:06:51.028Z,11.77
2023-04-15T14:09:43.002Z,11.71
2023-04-15T14:12:29.966Z,11.67
2023-04-15T14:15:16.342Z,11.60
2023-04-15T14:18:02.736Z,11.57
2023-04-15T14:20:49.460Z,11.57
2023-04-15T14:23:36.136Z,11.58
2023-04-15T14:26:22.336Z,11.64
2023-04-15T14:29:08.728Z,11.79
2023-04-15T14:32:07.678Z,11.98
2023-04-15T14:34:59.117Z,12.14
2023-04-15T14:37:45.753Z,12.19
2023-04-15T14:40:33.832Z,12.18
2023-04-15T14:43:21.407Z,12.16
2023-04-15T14:46:08.612Z,12.05
2023-04-15T14:48:55.003Z,11.90
2023-04-15T14:51:41.888Z,11.75
2023-04-15T14:54:28.309Z,11.59
2023-04-15T14:57:15.533Z,11.49
2023-04-15T15:00:03.021Z,11.40
2023-04-15T15:02:49.739Z,11.36
2023-04-15T15:05:36.537Z,11.24
2023-04-15T15:08:23.271Z,11.13
2023-04-15T15:11:10.070Z,11.09
2023-04-15T15:13:57.069Z,11.12
2023-04-15T15:16:44.180Z,11.14
2023-04-15T15:19:30.906Z,11.12
2023-04-15T15:22:19.422Z,11.13
2023-04-15T15:25:07.656Z,11.15
2023-04-15T15:27:53.915Z,11.15
2023-04-15T15:30:40.248Z,11.12
2023-04-15T15:33:28.582Z,11.14
2023-04-15T15:36:16.351Z,11.07
2023-04-15T15:39:04.945Z,11.12
2023-04-15T15:41:52.051Z,11.12
2023-04-15T15:44:38.934Z,11.12
2023-04-15T15:47:28.708Z,11.10
2023-04-15T15:50:15.483Z,11.05
2023-04-15T15:53:01.737Z,10.99
2023-04-15T15:55:48.428Z,10.96
2023-04-15T15:58:34.866Z,10.97
2023-04-15T16:01:21.996Z,10.94
2023-04-15T16:04:08.404Z,10.92
2023-04-15T16:06:55.340Z,10.89
2023-04-15T16:09:42.659Z,10.96
2023-04-15T16:12:28.983Z,10.98
2023-04-15T16:15:15.721Z,11.01
2023-04-15T16:18:02.265Z,11.00
2023-04-15T16:20:49.014Z,11.03
2023-04-15T16:23:37.008Z,11.02
2023-04-15T16:26:24.062Z,10.98
2023-04-15T16:29:10.259Z,10.95
2023-04-15T16:31:56.931Z,10.94
2023-04-15T16:34:43.901Z,10.88
2023-04-15T16:37:32.874Z,10.83
2023-04-15T16:40:19.499Z,10.75
2023-04-15T16:43:08.196Z,10.68
2023-04-15T16:45:54.752Z,10.59
2023-04-15T16:48:41.080Z,10.52
2023-04-15T16:51:30.531Z,10.48
2023-04-15T16:54:17.064Z,10.43
2023-04-15T16:57:04.067Z,10.38
2023-04-15T16:59:51.559Z,10.36
2023-04-15T17:02:38.187Z,10.32
2023-04-15T17:05:25.219Z,10.31
2023-04-15T17:08:11.926Z,10.29
2023-04-15T17:10:58.842Z,10.28
2023-04-15T17:13:45.851Z,10.27
2023-04-15T17:16:32.759Z,10.28
2023-04-15T17:19:18.979Z,10.26
2023-04-15T17:22:05.655Z,10.22
2023-04-15T17:24:52.367Z,10.20
2023-04-15T17:27:38.766Z,10.18
2023-04-15T17:30:25.600Z,10.18
2023-04-15T17:33:57.393Z,10.17
2023-04-15T17:36:18.763Z,10.14
2023-04-15T17:39:05.718Z,10.11
2023-04-15T17:41:52.330Z,10.09
2023-04-15T17:44:38.712Z,10.03
2023-04-15T17:47:25.302Z,9.98
2023-04-15T17:50:11.742Z,9.95
2023-04-15T17:52:58.464Z,9.92
2023-04-15T17:55:45.607Z,9.89
2023-04-15T17:58:31.911Z,9.87
2023-04-15T18:01:18.709Z,9.84
2023-04-15T18:04:05.945Z,9.80
2023-04-15T18:06:52.835Z,9.72
2023-04-15T18:09:39.577Z,9.79
2023-04-15T18:12:25.965Z,9.79
2023-04-15T18:15:14.515Z,9.77
2023-04-15T18:18:01.176Z,9.74
2023-04-15T18:20:47.802Z,9.70
2023-04-15T18:23:34.513Z,9.76
2023-04-15T18:26:22.065Z,9.78
2023-04-15T18:29:08.952Z,9.81
2023-04-15T18:31:56.054Z,9.79
2023-04-15T18:34:43.029Z,9.77
2023-04-15T18:37:29.485Z,9.78
2023-04-15T18:40:16.290Z,9.80
2023-04-15T18:43:02.628Z,9.80
2023-04-15T18:45:49.297Z,9.79
2023-04-15T18:48:35.938Z,9.79
2023-04-15T18:51:22.720Z,9.79
2023-04-15T18:54:09.273Z,9.80
2023-04-15T18:56:56.518Z,9.80
2023-04-15T18:59:43.542Z,9.80
2023-04-15T19:02:30.076Z,9.79
2023-04-15T19:05:16.646Z,9.78
2023-04-15T19:08:02.908Z,9.76
2023-04-15T19:10:50.074Z,9.72
2023-04-15T19:13:36.460Z,9.72
2023-04-15T19:16:23.011Z,9.71
2023-04-15T19:19:10.188Z,9.71
2023-04-15T19:21:57.706Z,9.68
2023-04-15T19:24:46.859Z,9.67
2023-04-15T19:27:33.194Z,9.66
2023-04-15T19:30:21.418Z,9.66
2023-04-15T19:33:07.832Z,9.66
2023-04-15T19:35:54.636Z,9.66
2023-04-15T19:38:41.029Z,9.54
2023-04-15T19:41:28.048Z,9.62
2023-04-15T19:44:15.026Z,9.64
2023-04-15T19:47:01.868Z,9.66
2023-04-15T19:49:49.491Z,9.67
2023-04-15T19:52:37.967Z,9.65
2023-04-15T19:55:24.534Z,9.64
2023-04-15T19:58:11.457Z,9.63
2023-04-15T20:00:58.572Z,9.65
2023-04-15T20:03:45.027Z,9.64
2023-04-15T20:06:31.946Z,9.64
2023-04-15T20:09:18.310Z,9.66
2023-04-15T20:12:49.414Z,9.65
2023-04-15T20:15:12.221Z,9.63
2023-04-15T20:17:59.060Z,9.63
2023-04-15T20:20:46.379Z,9.63
2023-04-15T20:23:32.892Z,9.64
2023-04-15T20:26:19.727Z,9.63
2023-04-15T20:29:06.490Z,9.62
2023-04-15T20:31:53.332Z,9.59
2023-04-15T20:34:43.071Z,9.59
2023-04-15T20:37:30.994Z,9.59
2023-04-15T20:40:17.305Z,9.58
2023-04-15T20:43:03.607Z,9.58
2023-04-15T20:45:50.838Z,9.58
2023-04-15T20:48:37.423Z,9.58
2023-04-15T20:51:24.085Z,9.57
2023-04-15T20:54:11.082Z,9.58
2023-04-15T20:56:58.219Z,9.54
2023-04-15T20:59:44.394Z,9.56
2023-04-15T21:02:31.540Z,9.53
2023-04-15T21:05:18.113Z,9.52
2023-04-15T21:08:04.341Z,9.52
2023-04-15T21:10:51.202Z,9.51
2023-04-15T21:13:37.976Z,9.49
2023-04-15T21:16:24.670Z,9.49
2023-04-15T21:19:11.022Z,9.48
2023-04-15T21:21:57.427Z,9.48
2023-04-15T21:24:43.676Z,9.48
2023-04-15T21:27:30.682Z,9.46
2023-04-15T21:30:17.264Z,9.44
2023-04-15T21:33:04.161Z,9.42
2023-04-15T21:35:51.336Z,9.42
2023-04-15T21:38:38.170Z,9.44
2023-04-15T21:41:24.748Z,9.44
2023-04-15T21:44:13.986Z,9.43
2023-04-15T21:47:02.105Z,9.41
2023-04-15T21:49:48.823Z,9.40
2023-04-15T21:52:35.597Z,9.41
2023-04-15T21:55:22.324Z,9.43
2023-04-15T21:58:08.643Z,9.43
2023-04-15T22:01:00.088Z,9.44
2023-04-15T22:03:46.962Z,9.41
2023-04-15T22:06:33.842Z,9.39
2023-04-15T22:09:20.646Z,9.39
2023-04-15T22:12:07.469Z,9.40
2023-04-15T22:14:55.759Z,9.41
2023-04-15T22:17:43.024Z,9.40
2023-04-15T22:20:29.673Z,9.40
2023-04-15T22:23:17.510Z,9.41
2023-04-15T22:26:05.493Z,9.41
2023-04-15T22:28:51.881Z,9.39
2023-04-15T22:31:38.318Z,9.36
2023-04-15T22:34:24.647Z,9.35
2023-04-15T22:37:11.809Z,9.35
2023-04-15T22:39:59.054Z,9.35
2023-04-15T22:42:46.258Z,9.36
2023-04-15T22:45:32.900Z,9.37
2023-04-15T22:48:19.328Z,9.35
2023-04-15T22:51:06.422Z,9.31
2023-04-15T22:53:53.277Z,9.30
2023-04-15T22:56:39.791Z,9.30
2023-04-15T22:59:26.174Z,9.28
2023-04-15T23:02:13.131Z,9.25
2023-04-15T23:05:00.164Z,9.25
2023-04-15T23:07:49.968Z,9.24
2023-04-15T23:10:36.620Z,9.24
2023-04-15T23:13:23.150Z,9.23
2023-04-15T23:16:09.760Z,9.23
2023-04-15T23:18:56.180Z,9.22
2023-04-15T23:21:42.680Z,9.21
2023-04-15T23:24:29.246Z,9.21
2023-04-15T23:27:17.705Z,9.21
2023-04-15T23:30:05.303Z,9.21
2023-04-15T23:32:51.858Z,9.20
2023-04-15T23:35:38.351Z,9.18
2023-04-15T23:38:24.832Z,9.17
2023-04-15T23:41:12.185Z,9.16
2023-04-15T23:43:58.843Z,9.15
2023-04-15T23:46:45.687Z,9.17
2023-04-15T23:49:32.136Z,9.17
2023-04-15T23:52:19.161Z,9.16
2023-04-15T23:55:06.803Z,9.15
2023-04-15T23:57:53.402Z,9.13
